Time;durP1;ratioP1;P1;durP2;ratioP2;P2;SDS_P1;SDS_P2;PMS_P1;PMS_P2;Temp;Humidity;BMP_temperature;BMP_pressure;BME280_temperature;BME280_humidity;BME280_pressure;Samples;Min_cycle;Max_cycle;Signal;HPM_P1;HPM_P2
2023/09/14 00:00:51;;;;;;;4.45;1.70;;;;;;;23.81;48.31;102382.72;5013672;28;20028;-69
2023/09/14 00:03:17;;;;;;;2.80;1.77;;;;;;;23.49;48.09;102376.91;5030925;28;20068;-69
2023/09/14 00:05:44;;;;;;;5.53;1.58;;;;;;;23.72;48.35;102375.94;5013889;28;20052;-70
2023/09/14 00:08:11;;;;;;;3.70;1.55;;;;;;;23.75;48.60;102382.97;5013518;28;20026;-70
2023/09/14 00:10:37;;;;;;;9.27;1.80;;;;;;;23.75;48.47;102377.63;5031511;28;20030;-70
2023/09/14 00:13:03;;;;;;;2.50;1.58;;;;;;;24.11;46.66;102379.72;5031672;28;20079;-70
2023/09/14 00:15:28;;;;;;;4.03;1.70;;;;;;;23.84;47.75;102377.25;5029864;28;20022;-70
2023/09/14 00:17:54;;;;;;;2.28;1.73;;;;;;;23.59;48.09;102380.06;5030052;28;20029;-70
2023/09/14 00:20:21;;;;;;;6.28;1.88;;;;;;;23.85;48.18;102387.00;5031091;28;20029;-70
2023/09/14 00:22:51;;;;;;;2.97;1.73;;;;;;;23.67;47.65;102387.75;5030784;28;20124;-70
2023/09/14 00:25:20;;;;;;;3.72;1.50;;;;;;;23.49;47.90;102379.56;5013314;28;20029;-70
2023/09/14 00:27:47;;;;;;;2.92;1.60;;;;;;;23.52;47.76;102383.91;5013449;28;20033;-69
2023/09/14 00:30:13;;;;;;;5.45;1.10;;;;;;;23.68;47.14;102384.16;5013565;28;20052;-69
2023/09/14 00:32:39;;;;;;;2.65;1.40;;;;;;;23.43;48.54;102384.28;5031395;28;20025;-70
2023/09/14 00:35:15;;;;;;;2.35;1.60;;;;;;;23.55;48.05;102390.00;5029813;28;20083;-70
2023/09/14 00:37:41;;;;;;;4.18;1.27;;;;;;;23.50;47.97;102385.78;5013547;28;20496;-70
2023/09/14 00:40:09;;;;;;;3.00;1.90;;;;;;;23.47;48.69;102376.09;5030100;28;20021;-69
2023/09/14 00:42:38;;;;;;;4.22;1.55;;;;;;;23.47;48.46;102375.22;5030977;28;20022;-69
2023/09/14 00:45:04;;;;;;;2.25;1.48;;;;;;;23.89;46.53;102369.06;5013109;28;20137;-70
2023/09/14 00:47:30;;;;;;;1.67;1.50;;;;;;;23.11;49.43;102375.69;5031336;28;20183;-70
2023/09/14 00:49:55;;;;;;;3.65;1.83;;;;;;;23.07;48.60;102382.97;5013262;28;20040;-70
2023/09/14 00:52:21;;;;;;;6.45;1.83;;;;;;;23.19;48.88;102386.97;5030787;28;20025;-70
2023/09/14 00:54:46;;;;;;;4.95;1.83;;;;;;;22.80;49.66;102375.06;5013722;28;20024;-70
2023/09/14 00:57:11;;;;;;;5.53;1.77;;;;;;;23.15;48.70;102378.25;5029411;28;20018;-69
2023/09/14 00:59:37;;;;;;;3.28;2.10;;;;;;;23.60;47.97;102380.94;5013060;28;20386;-70
2023/09/14 01:02:03;;;;;;;2.78;1.70;;;;;;;23.85;47.51;102387.00;5029324;28;20033;-71
2023/09/14 01:04:29;;;;;;;4.57;1.95;;;;;;;23.81;47.45;102385.38;5012559;28;20033;-70
2023/09/14 01:06:56;;;;;;;2.97;2.00;;;;;;;23.11;48.88;102379.25;5013497;28;20482;-70
2023/09/14 01:09:21;;;;;;;2.70;1.90;;;;;;;23.42;48.40;102383.41;5013192;28;20603;-70
2023/09/14 01:11:47;;;;;;;2.78;1.80;;;;;;;23.24;48.92;102379.66;5012939;28;20033;-70
2023/09/14 01:14:34;;;;;;;5.82;2.10;;;;;;;23.63;47.92;102376.34;5031706;28;20026;-69
2023/09/14 01:17:08;;;;;;;6.43;2.58;;;;;;;23.60;48.42;102379.13;5016532;28;20022;-69
2023/09/14 01:20:03;;;;;;;3.78;1.92;;;;;;;23.26;50.17;102384.94;5016880;28;20025;-68
2023/09/14 01:22:48;;;;;;;4.75;2.15;;;;;;;23.18;48.87;102386.13;5016127;28;20378;-68
2023/09/14 01:25:23;;;;;;;5.03;1.70;;;;;;;23.20;49.74;102386.03;5034128;28;20026;-68
2023/09/14 01:27:49;;;;;;;3.25;1.52;;;;;;;23.57;48.48;102384.59;5016601;28;20167;-68
2023/09/14 01:30:14;;;;;;;2.28;1.58;;;;;;;23.50;48.31;102385.78;5034357;28;20545;-69
2023/09/14 01:32:40;;;;;;;4.68;1.70;;;;;;;23.42;49.30;102383.41;5033870;28;20032;-68
2023/09/14 01:35:05;;;;;;;3.58;1.83;;;;;;;23.09;49.20;102381.09;5016394;28;20504;-69
2023/09/14 01:37:32;;;;;;;2.92;1.50;;;;;;;23.55;48.75;102373.97;5016092;28;20029;-68
2023/09/14 01:39:58;;;;;;;2.65;1.83;;;;;;;23.63;48.20;102375.47;5033841;28;20104;-70
2023/09/14 01:42:24;;;;;;;4.85;1.65;;;;;;;23.35;48.25;102371.25;5016015;28;20021;-69
2023/09/14 01:44:50;;;;;;;2.53;1.45;;;;;;;23.40;48.56;102369.28;5016200;28;20018;-70
2023/09/14 01:47:16;;;;;;;3.53;1.60;;;;;;;23.25;48.04;102364.56;5033734;28;20101;-69
2023/09/14 01:49:43;;;;;;;2.42;1.40;;;;;;;23.20;49.31;102368.28;5033843;28;20057;-69
2023/09/14 01:52:08;;;;;;;6.53;1.83;;;;;;;22.77;49.68;102369.84;5032360;28;20440;-69
2023/09/14 01:54:33;;;;;;;2.35;1.63;;;;;;;23.08;49.71;102368.72;5033724;28;20033;-69
2023/09/14 01:56:59;;;;;;;3.13;1.20;;;;;;;22.84;49.29;102376.69;5015835;28;20053;-69
2023/09/14 01:59:24;;;;;;;1.85;1.15;;;;;;;23.02;49.26;102374.25;5032054;28;20029;-69
2023/09/14 02:01:50;;;;;;;4.15;1.30;;;;;;;23.18;48.51;102367.44;5015799;28;20044;-69
2023/09/14 02:04:15;;;;;;;6.70;1.55;;;;;;;23.16;49.38;102366.66;5015520;28;20029;-70
2023/09/14 02:06:40;;;;;;;3.90;1.10;;;;;;;23.07;49.30;102364.28;5015795;28;20121;-69
2023/09/14 02:09:06;;;;;;;5.03;1.65;;;;;;;23.06;49.03;102359.88;5033623;28;20033;-69
2023/09/14 02:11:31;;;;;;;2.00;1.30;;;;;;;22.98;48.95;102356.66;5033141;28;20038;-69
2023/09/14 02:13:57;;;;;;;3.50;1.15;;;;;;;23.03;48.62;102354.69;5015971;28;20095;-69
2023/09/14 02:16:22;;;;;;;3.78;1.45;;;;;;;23.21;48.64;102359.31;5015426;28;20026;-69
2023/09/14 02:18:48;;;;;;;2.75;1.45;;;;;;;23.14;49.56;102347.16;5015490;28;20535;-69
2023/09/14 02:21:16;;;;;;;6.97;2.17;;;;;;;23.01;49.56;102351.19;5031605;28;20053;-69
2023/09/14 02:23:44;;;;;;;4.20;1.65;;;;;;;23.15;49.25;102343.56;5032723;28;20041;-69
2023/09/14 02:26:09;;;;;;;5.78;1.58;;;;;;;23.62;48.19;102347.91;5015281;28;20021;-69
2023/09/14 02:28:35;;;;;;;3.42;1.45;;;;;;;22.98;48.82;102351.31;5015365;28;20022;-69
2023/09/14 02:31:06;;;;;;;3.28;1.42;;;;;;;22.95;48.51;102344.28;5015188;28;20061;-69
2023/09/14 02:33:31;;;;;;;2.00;1.27;;;;;;;22.96;49.20;102353.19;5015376;28;20358;-70
2023/09/14 02:35:57;;;;;;;4.70;1.55;;;;;;;23.09;49.50;102343.75;5015094;28;20028;-70
2023/09/14 02:38:22;;;;;;;3.85;1.30;;;;;;;23.24;48.39;102347.66;5014925;28;20460;-69
2023/09/14 02:40:47;;;;;;;5.93;1.80;;;;;;;23.25;48.26;102349.41;5032786;28;20025;-70
2023/09/14 02:43:13;;;;;;;4.22;1.35;;;;;;;23.20;47.82;102340.72;5032287;28;20021;-71
2023/09/14 02:45:38;;;;;;;2.85;1.50;;;;;;;23.50;47.48;102343.09;5032797;28;20389;-70
2023/09/14 02:48:04;;;;;;;7.93;1.42;;;;;;;22.95;48.39;102346.97;5015289;28;20025;-69
2023/09/14 02:50:29;;;;;;;5.55;1.52;;;;;;;23.21;48.17;102348.66;5014855;28;20017;-69
2023/09/14 02:52:55;;;;;;;3.70;1.10;;;;;;;23.40;47.22;102337.25;5033160;28;20025;-69
2023/09/14 02:55:20;;;;;;;2.08;1.30;;;;;;;23.58;46.48;102350.78;5014302;28;20017;-69
2023/09/14 02:57:45;;;;;;;5.43;1.25;;;;;;;22.64;49.63;102341.91;5015061;28;20037;-69
2023/09/14 03:00:17;;;;;;;4.20;1.20;;;;;;;22.92;48.75;102340.91;5014387;28;20448;-69
2023/09/14 03:02:43;;;;;;;4.05;1.65;;;;;;;23.13;47.61;102340.06;5032220;28;20405;-69
2023/09/14 03:05:09;;;;;;;3.28;1.52;;;;;;;23.33;47.58;102339.28;5032571;28;20037;-69
2023/09/14 03:07:35;;;;;;;2.80;1.40;;;;;;;23.12;48.60;102333.03;5014464;28;20030;-70
2023/09/14 03:10:00;;;;;;;5.68;2.53;;;;;;;22.96;48.72;102342.53;5014373;28;20049;-69
2023/09/14 03:12:26;;;;;;;2.05;1.23;;;;;;;22.81;49.14;102339.50;5030932;28;20021;-69
2023/09/14 03:14:51;;;;;;;1.73;1.33;;;;;;;22.87;48.42;102336.63;5014694;28;20025;-69
2023/09/14 03:17:17;;;;;;;6.63;1.35;;;;;;;22.86;48.95;102342.88;5030337;28;20470;-69
2023/09/14 03:19:43;;;;;;;4.15;1.20;;;;;;;22.61;49.21;102337.56;5014358;28;20064;-69
2023/09/14 03:22:08;;;;;;;2.35;1.27;;;;;;;22.56;49.94;102333.34;5014316;28;20029;-69
2023/09/14 03:24:33;;;;;;;4.95;2.10;;;;;;;22.74;49.67;102343.34;5030040;28;20037;-69
2023/09/14 03:26:59;;;;;;;2.90;1.30;;;;;;;22.69;49.40;102334.63;5014225;28;20481;-69
2023/09/14 03:29:24;;;;;;;3.50;1.73;;;;;;;22.97;48.56;102338.91;5014239;28;20056;-69
2023/09/14 03:31:50;;;;;;;2.17;1.48;;;;;;;22.87;48.00;102341.94;5014093;28;20485;-69
2023/09/14 03:34:16;;;;;;;4.40;1.42;;;;;;;22.86;48.33;102333.97;5013602;28;20116;-69
2023/09/14 03:36:41;;;;;;;5.85;1.63;;;;;;;22.25;49.70;102335.28;5031396;28;20025;-69
2023/09/14 03:39:08;;;;;;;2.65;1.30;;;;;;;22.48;49.22;102339.81;5013979;28;20029;-69
2023/09/14 03:41:33;;;;;;;2.70;1.35;;;;;;;22.35;49.87;102335.88;5013749;28;20044;-69
2023/09/14 03:43:58;;;;;;;3.78;1.65;;;;;;;22.04;49.43;102336.94;5030450;28;20025;-69
2023/09/14 03:46:25;;;;;;;2.80;1.42;;;;;;;22.57;49.11;102337.75;5030164;28;20389;-69
2023/09/14 03:48:50;;;;;;;5.95;1.85;;;;;;;22.29;50.09;102344.91;5013941;28;20025;-69
2023/09/14 03:51:15;;;;;;;2.67;2.00;;;;;;;22.94;47.32;102347.03;5013630;28;20382;-69
2023/09/14 03:53:41;;;;;;;2.95;1.70;;;;;;;22.58;48.77;102339.50;5013641;28;20029;-69
2023/09/14 03:56:07;;;;;;;5.30;1.42;;;;;;;22.50;48.86;102337.09;5013772;28;20025;-69
2023/09/14 03:58:36;;;;;;;6.95;1.85;;;;;;;22.03;49.31;102338.69;5013668;28;20039;-69
2023/09/14 04:01:03;;;;;;;5.07;1.60;;;;;;;22.08;48.94;102343.88;5031303;28;20465;-69
2023/09/14 04:03:28;;;;;;;2.08;1.60;;;;;;;22.18;49.24;102339.97;5013737;28;20056;-69
2023/09/14 04:05:53;;;;;;;3.15;1.60;;;;;;;22.27;49.16;102328.13;5013716;28;20057;-69
2023/09/14 04:08:19;;;;;;;3.72;2.10;;;;;;;22.30;49.06;102335.16;5013550;28;20480;-69
2023/09/14 04:10:44;;;;;;;5.00;1.88;;;;;;;22.45;48.88;102329.28;5030227;28;20037;-69
2023/09/14 04:13:29;;;;;;;5.85;1.80;;;;;;;22.56;49.04;102328.00;5013383;28;20040;-69
2023/09/14 04:16:03;;;;;;;6.65;1.67;;;;;;;22.35;49.27;102330.53;5031512;28;20427;-69
2023/09/14 04:18:29;;;;;;;5.97;1.92;;;;;;;22.43;49.86;102336.47;5013755;28;20029;-69
2023/09/14 04:20:55;;;;;;;6.68;2.38;;;;;;;22.30;49.76;102328.03;5031069;28;20033;-69
2023/09/14 04:23:21;;;;;;;7.47;2.03;;;;;;;22.25;49.81;102331.78;5010000;28;20056;-69
2023/09/14 04:25:48;;;;;;;2.90;1.73;;;;;;;22.46;49.32;102333.69;4994069;28;20030;-69
2023/09/14 04:28:14;;;;;;;4.72;1.92;;;;;;;22.70;48.98;102325.72;5010029;28;20038;-69
2023/09/14 04:30:48;;;;;;;3.47;1.60;;;;;;;22.43;49.58;102339.13;5011768;28;20026;-69
2023/09/14 04:33:15;;;;;;;5.97;1.77;;;;;;;22.43;49.13;102333.78;5010411;28;20022;-69
2023/09/14 04:35:41;;;;;;;5.32;2.20;;;;;;;22.32;49.40;102325.28;5011243;28;20073;-68
2023/09/14 04:38:07;;;;;;;6.72;2.00;;;;;;;22.62;49.30;102333.13;4993839;28;20034;-68
2023/09/14 04:40:41;;;;;;;10.98;2.47;;;;;;;22.46;49.20;102332.81;5009858;28;20021;-68
2023/09/14 04:43:06;;;;;;;4.47;1.88;;;;;;;22.06;49.72;102332.41;4993858;28;20026;-68
2023/09/14 04:45:32;;;;;;;4.35;2.63;;;;;;;21.95;50.40;102332.78;4993520;28;20030;-68
2023/09/14 04:47:59;;;;;;;3.22;1.58;;;;;;;21.62;51.26;102343.63;4993757;28;20032;-68
2023/09/14 04:50:24;;;;;;;3.58;2.17;;;;;;;21.75;51.41;102340.56;5014193;28;20026;-71
2023/09/14 04:52:50;;;;;;;2.15;1.65;;;;;;;21.83;50.57;102334.09;5015171;28;20080;-71
2023/09/14 04:55:15;;;;;;;3.15;1.75;;;;;;;22.20;50.06;102342.56;4997024;28;20068;-70
2023/09/14 04:57:40;;;;;;;8.18;2.33;;;;;;;21.89;50.36;102348.13;4997498;28;20109;-71
2023/09/14 05:00:09;;;;;;;1.88;1.63;;;;;;;21.93;50.42;102339.09;5015125;28;20482;-71
2023/09/14 05:02:35;;;;;;;4.38;1.95;;;;;;;22.00;51.30;102346.81;5014821;28;20022;-71
2023/09/14 05:05:01;;;;;;;3.85;1.70;;;;;;;21.91;50.95;102346.25;4997086;28;20100;-71
2023/09/14 05:07:26;;;;;;;3.70;1.90;;;;;;;22.13;50.65;102344.59;5015020;28;20519;-71
2023/09/14 05:09:51;;;;;;;5.63;2.03;;;;;;;22.29;49.86;102341.38;5014746;28;20060;-70
2023/09/14 05:12:17;;;;;;;4.13;2.00;;;;;;;21.75;50.74;102346.78;5014633;28;20037;-70
2023/09/14 05:14:42;;;;;;;3.63;2.00;;;;;;;21.51;51.89;102349.28;5013704;28;20045;-69
2023/09/14 05:17:07;;;;;;;7.00;2.42;;;;;;;21.81;51.86;102346.56;4996927;28;20450;-69
2023/09/14 05:19:33;;;;;;;7.88;2.13;;;;;;;22.06;50.56;102343.06;4997173;28;20097;-70
2023/09/14 05:21:58;;;;;;;3.88;2.30;;;;;;;21.74;51.83;102339.69;5014786;28;20398;-69
2023/09/14 05:24:24;;;;;;;6.10;1.90;;;;;;;21.24;52.42;102342.16;5016313;28;20078;-70
2023/09/14 05:26:49;;;;;;;4.15;2.20;;;;;;;21.66;51.14;102347.06;5034132;28;20032;-69
2023/09/14 05:29:14;;;;;;;2.85;2.05;;;;;;;21.57;51.47;102337.59;5032783;28;20389;-69
2023/09/14 05:31:40;;;;;;;3.47;2.17;;;;;;;21.50;51.79;102342.22;5016326;28;20021;-69
2023/09/14 05:34:06;;;;;;;4.15;2.08;;;;;;;21.77;51.66;102347.56;5016377;28;20366;-69
2023/09/14 05:36:31;;;;;;;6.38;2.10;;;;;;;21.83;51.24;102344.72;5034204;28;20446;-69
2023/09/14 05:38:57;;;;;;;6.15;2.20;;;;;;;21.62;51.46;102346.28;5016164;28;20109;-69
2023/09/14 05:41:22;;;;;;;4.80;2.33;;;;;;;21.55;52.19;102343.91;5016083;28;20500;-69
2023/09/14 05:43:48;;;;;;;2.35;2.03;;;;;;;21.41;52.80;102350.50;5032854;28;20400;-70
2023/09/14 05:46:13;;;;;;;6.78;2.22;;;;;;;20.83;54.26;102346.03;5015643;28;20029;-70
2023/09/14 05:48:38;;;;;;;3.38;2.22;;;;;;;21.50;53.68;102347.53;5016012;28;20079;-69
2023/09/14 05:51:04;;;;;;;8.05;2.45;;;;;;;21.14;54.02;102355.75;5016282;28;20025;-69
2023/09/14 05:53:29;;;;;;;7.30;2.13;;;;;;;21.16;53.95;102359.22;5015463;28;20039;-70
2023/09/14 05:55:55;;;;;;;4.70;2.10;;;;;;;20.61;55.14;102360.84;5015992;28;20028;-69
2023/09/14 05:58:20;;;;;;;3.03;1.90;;;;;;;21.81;52.46;102359.84;5015338;28;20061;-70
2023/09/14 06:00:46;;;;;;;4.53;2.10;;;;;;;21.86;52.56;102373.88;5015469;28;20034;-69
2023/09/14 06:03:13;;;;;;;5.65;1.60;;;;;;;21.83;52.60;102366.00;5016094;28;20037;-69
2023/09/14 06:05:39;;;;;;;8.43;2.53;;;;;;;21.50;53.09;102363.50;5015260;28;20392;-69
2023/09/14 06:08:04;;;;;;;3.15;1.77;;;;;;;21.43;53.88;102369.94;5015700;28;20061;-69
2023/09/14 06:10:30;;;;;;;9.30;2.30;;;;;;;21.80;52.81;102368.78;5031988;28;20385;-70
2023/09/14 06:12:56;;;;;;;6.32;2.78;;;;;;;22.10;52.26;102366.00;5033517;28;20432;-69
2023/09/14 06:15:21;;;;;;;4.25;2.35;;;;;;;21.96;52.25;102366.47;5015138;28;20104;-69
2023/09/14 06:17:47;;;;;;;6.55;2.40;;;;;;;21.25;53.96;102370.50;5033502;28;20027;-69
2023/09/14 06:20:13;;;;;;;5.85;2.60;;;;;;;21.61;54.05;102370.28;5015111;28;20486;-69
2023/09/14 06:22:39;;;;;;;3.75;2.30;;;;;;;21.75;53.45;102373.38;5033099;28;20061;-69
2023/09/14 06:25:05;;;;;;;7.80;2.70;;;;;;;22.47;52.02;102362.06;5033171;28;20033;-69
2023/09/14 06:27:30;;;;;;;6.70;2.63;;;;;;;22.56;51.70;102362.66;5031483;28;20468;-70
2023/09/14 06:29:56;;;;;;;6.65;2.63;;;;;;;22.62;51.77;102365.09;5032032;28;20029;-69
2023/09/14 06:32:21;;;;;;;5.25;2.72;;;;;;;23.04;51.08;102367.09;5031343;28;20116;-69
2023/09/14 06:34:47;;;;;;;4.93;2.90;;;;;;;23.05;50.70;102368.81;5015176;28;20029;-69
2023/09/14 06:37:13;;;;;;;7.50;2.63;;;;;;;22.32;52.09;102370.56;5031222;28;20071;-69
2023/09/14 06:39:38;;;;;;;8.10;3.08;;;;;;;22.54;52.40;102370.69;5015371;28;20024;-69
2023/09/14 06:42:04;;;;;;;6.97;2.70;;;;;;;23.21;50.64;102369.97;5014943;28;20034;-69
2023/09/14 06:44:29;;;;;;;7.35;3.05;;;;;;;23.24;50.64;102352.13;5014638;28;20025;-69
2023/09/14 06:46:55;;;;;;;9.13;3.17;;;;;;;23.08;50.74;102358.03;5014930;28;20033;-69
2023/09/14 06:49:20;;;;;;;7.30;3.15;;;;;;;22.59;51.98;102370.56;5032376;28;20492;-69
2023/09/14 06:51:47;;;;;;;5.55;3.05;;;;;;;22.92;51.76;102371.09;5032482;28;20092;-69
2023/09/14 06:54:12;;;;;;;6.53;3.20;;;;;;;22.60;52.18;102366.94;5032373;28;20037;-69
2023/09/14 06:56:37;;;;;;;6.82;2.60;;;;;;;23.16;51.40;102366.66;5032422;28;20033;-69
2023/09/14 06:59:03;;;;;;;7.80;3.38;;;;;;;23.47;50.33;102365.41;5014935;28;20032;-70
2023/09/14 07:01:29;;;;;;;7.35;2.97;;;;;;;23.70;49.66;102366.28;5014454;28;20112;-70
2023/09/14 07:03:54;;;;;;;7.60;3.35;;;;;;;23.49;49.61;102368.91;5014603;28;20056;-69
2023/09/14 07:06:21;;;;;;;12.98;3.63;;;;;;;22.93;50.96;102358.59;5031836;28;20478;-69
2023/09/14 07:08:48;;;;;;;7.63;2.58;;;;;;;22.51;51.98;102366.34;5014226;28;20032;-69
2023/09/14 07:11:13;;;;;;;8.50;3.30;;;;;;;23.18;50.75;102364.78;5031581;28;20104;-69
2023/09/14 07:13:39;;;;;;;6.47;2.92;;;;;;;23.71;49.95;102362.66;5014224;28;20124;-70
2023/09/14 07:16:04;;;;;;;5.72;2.47;;;;;;;23.74;49.51;102362.56;5031998;28;20470;-69
2023/09/14 07:18:31;;;;;;;11.82;3.45;;;;;;;23.83;49.97;102356.81;5014196;28;20071;-69
2023/09/14 07:20:59;;;;;;;7.65;2.85;;;;;;;23.37;50.96;102353.41;5014436;28;20021;-70
2023/09/14 07:23:28;;;;;;;5.40;2.42;;;;;;;23.21;51.74;102356.66;5010446;28;20054;-69
2023/09/14 07:25:54;;;;;;;5.10;2.78;;;;;;;23.85;50.55;102359.41;5012219;28;20037;-69
2023/09/14 07:28:20;;;;;;;10.75;3.40;;;;;;;23.48;50.89;102368.94;4994242;28;20096;-69
2023/09/14 07:30:48;;;;;;;14.32;3.55;;;;;;;24.26;49.98;102366.63;4994453;28;20034;-69
2023/09/14 07:33:14;;;;;;;5.15;3.50;;;;;;;23.95;49.92;102373.31;4994267;28;20118;-69
2023/09/14 07:35:39;;;;;;;8.52;3.38;;;;;;;24.92;49.15;102362.81;4994373;28;20133;-69
2023/09/14 07:38:08;;;;;;;8.93;2.95;;;;;;;25.88;47.36;102369.78;4994517;28;20018;-70
2023/09/14 07:40:33;;;;;;;4.82;2.92;;;;;;;25.81;45.74;102379.94;5010385;28;20513;-71
2023/09/14 07:42:58;;;;;;;3.55;2.53;;;;;;;27.31;43.59;102374.69;4994648;28;20029;-70
2023/09/14 07:45:24;;;;;;;7.88;2.45;;;;;;;28.17;41.77;102373.34;4993681;28;20525;-70
2023/09/14 07:47:49;;;;;;;5.18;2.30;;;;;;;28.02;41.21;102383.22;4994552;28;20024;-70
2023/09/14 07:50:15;;;;;;;6.93;2.20;;;;;;;28.54;39.59;102382.69;4994009;28;20478;-70
2023/09/14 07:52:41;;;;;;;6.78;2.40;;;;;;;27.50;41.28;102385.28;5012071;28;20092;-70
2023/09/14 07:55:07;;;;;;;10.77;3.35;;;;;;;28.97;39.28;102384.53;5011607;28;20488;-70
2023/09/14 07:57:33;;;;;;;6.47;2.40;;;;;;;28.58;38.68;102386.94;5010732;28;20032;-70
2023/09/14 07:59:58;;;;;;;6.20;2.33;;;;;;;28.66;38.61;102393.69;4993919;28;20021;-70
2023/09/14 08:02:25;;;;;;;4.95;2.45;;;;;;;28.91;38.87;102385.78;5011925;28;20026;-70
2023/09/14 08:04:52;;;;;;;6.95;2.45;;;;;;;28.07;39.40;102397.25;4993878;28;20025;-69
2023/09/14 08:07:17;;;;;;;4.30;2.13;;;;;;;27.96;39.94;102399.66;4993957;28;20064;-69
2023/09/14 08:09:44;;;;;;;9.10;3.75;;;;;;;27.38;41.25;102388.66;4994322;28;20061;-69
2023/09/14 08:12:11;;;;;;;5.72;2.50;;;;;;;27.08;41.35;102389.44;5011582;28;20026;-70
2023/09/14 08:14:36;;;;;;;4.85;2.17;;;;;;;26.13;43.14;102390.88;5010273;28;20112;-70
2023/09/14 08:17:01;;;;;;;5.85;2.38;;;;;;;26.00;44.03;102389.72;5012102;28;20117;-69
2023/09/14 08:19:27;;;;;;;6.28;2.38;;;;;;;25.80;44.39;102388.94;5010162;28;20022;-69
2023/09/14 08:21:53;;;;;;;6.35;3.00;;;;;;;26.45;43.70;102391.00;5011815;28;20478;-69
2023/09/14 08:24:18;;;;;;;7.13;2.83;;;;;;;25.63;44.75;102389.75;5012745;28;20085;-69
2023/09/14 08:26:44;;;;;;;6.53;3.05;;;;;;;26.53;43.41;102385.19;4997775;28;20030;-69
2023/09/14 08:29:10;;;;;;;5.40;2.95;;;;;;;27.13;42.74;102381.09;5015728;28;20033;-69
2023/09/14 08:31:36;;;;;;;5.35;2.90;;;;;;;27.21;42.03;102385.09;4998068;28;20115;-69
2023/09/14 08:34:01;;;;;;;7.03;3.15;;;;;;;26.48;43.92;102379.25;4997675;28;20073;-69
2023/09/14 08:36:28;;;;;;;7.03;2.60;;;;;;;27.20;42.61;102388.75;5013815;28;20017;-69
2023/09/14 08:38:53;;;;;;;5.57;2.80;;;;;;;25.96;45.89;102388.16;4997834;28;20036;-69
2023/09/14 08:41:29;;;;;;;9.73;3.83;;;;;;;26.71;44.31;102391.44;4997575;28;20021;-69
2023/09/14 08:43:56;;;;;;;6.95;3.05;;;;;;;27.63;41.81;102388.13;5015502;28;20029;-69
2023/09/14 08:46:23;;;;;;;7.72;3.00;;;;;;;27.53;42.39;102389.59;5015172;28;20022;-69
2023/09/14 08:48:50;;;;;;;8.05;2.17;;;;;;;27.48;43.03;102389.88;4997610;28;20494;-69
2023/09/14 08:51:16;;;;;;;6.65;3.20;;;;;;;27.42;42.76;102393.78;4997209;28;20030;-69
2023/09/14 08:53:43;;;;;;;7.57;3.00;;;;;;;26.57;43.90;102401.06;5015345;28;20030;-69
2023/09/14 08:56:13;;;;;;;8.25;3.25;;;;;;;27.42;42.62;102380.38;4997491;28;20022;-69
2023/09/14 08:58:40;;;;;;;6.28;2.72;;;;;;;27.48;42.70;102384.50;4997461;28;20430;-69
2023/09/14 09:01:09;;;;;;;5.28;2.90;;;;;;;26.79;44.02;102380.28;4997379;28;20022;-69
2023/09/14 09:03:34;;;;;;;6.38;3.80;;;;;;;27.41;43.32;102385.81;4997095;28;20053;-69
2023/09/14 09:06:01;;;;;;;4.35;2.63;;;;;;;27.76;42.08;102382.91;5014928;28;20022;-69
2023/09/14 09:08:28;;;;;;;9.10;2.65;;;;;;;28.37;41.14;102385.56;4996961;28;20304;-69
2023/09/14 09:10:53;;;;;;;5.75;2.50;;;;;;;28.30;41.63;102389.59;5014735;28;20029;-69
2023/09/14 09:13:19;;;;;;;7.32;2.97;;;;;;;27.14;43.11;102388.22;5014747;28;20029;-69
2023/09/14 09:15:44;;;;;;;6.10;2.45;;;;;;;27.40;42.68;102395.69;5014396;28;20026;-69
2023/09/14 09:18:12;;;;;;;5.97;2.72;;;;;;;28.04;42.03;102389.34;5014726;28;20052;-69
2023/09/14 09:20:45;;;;;;;8.55;2.67;;;;;;;27.19;43.27;102392.38;5013767;28;20516;-69
2023/09/14 09:23:14;;;;;;;6.45;3.08;;;;;;;28.26;42.03;102384.41;5007004;28;20053;-69
2023/09/14 09:25:45;;;;;;;6.30;2.10;;;;;;;28.53;41.07;102380.97;5033049;28;20116;-69
2023/09/14 09:28:11;;;;;;;8.07;3.15;;;;;;;27.87;41.78;102383.13;5016986;28;20429;-69
2023/09/14 09:30:37;;;;;;;6.35;2.90;;;;;;;27.54;42.20;102376.09;5016377;28;20599;-69
2023/09/14 09:33:03;;;;;;;6.85;3.13;;;;;;;26.70;43.25;102378.97;5034485;28;20072;-69
2023/09/14 09:35:30;;;;;;;3.97;2.38;;;;;;;26.84;43.29;102375.53;5015809;28;20099;-69
2023/09/14 09:37:58;;;;;;;7.95;3.65;;;;;;;26.41;44.27;102384.06;5016662;28;20482;-69
2023/09/14 09:40:25;;;;;;;5.60;2.95;;;;;;;27.03;42.88;102380.75;5016594;28;20457;-69
2023/09/14 09:42:52;;;;;;;7.82;3.15;;;;;;;27.58;41.65;102377.63;5016738;28;20034;-69
2023/09/14 09:45:25;;;;;;;5.50;2.60;;;;;;;26.85;42.96;102383.50;5016190;28;20026;-69
2023/09/14 09:47:53;;;;;;;4.57;3.00;;;;;;;27.17;41.97;102378.16;5016508;28;20071;-69
2023/09/14 09:50:21;;;;;;;4.72;2.97;;;;;;;27.55;41.41;102382.34;5034106;28;20025;-69
2023/09/14 09:52:48;;;;;;;4.05;2.65;;;;;;;27.88;40.57;102381.31;5033082;28;20025;-68
2023/09/14 09:55:31;;;;;;;5.55;2.42;;;;;;;27.07;41.43;102374.28;5034281;28;20496;-69
2023/09/14 09:57:59;;;;;;;6.20;2.25;;;;;;;26.92;42.33;102367.94;5016508;28;20500;-69
2023/09/14 10:00:29;;;;;;;5.18;2.28;;;;;;;27.84;41.13;102372.56;5015832;28;20052;-69
2023/09/14 10:02:54;;;;;;;6.63;2.90;;;;;;;27.98;40.86;102365.50;5016079;28;20087;-69
2023/09/14 10:05:50;;;;;;;7.15;2.63;;;;;;;27.64;40.44;102370.19;5033686;28;20014;-69
2023/09/14 10:08:20;;;;;;;7.70;2.70;;;;;;;28.09;39.76;102373.81;5031783;28;20034;-69
2023/09/14 10:10:51;;;;;;;8.18;2.28;;;;;;;28.75;36.86;102363.53;5034127;28;20568;-69
2023/09/14 10:13:24;;;;;;;6.50;2.53;;;;;;;28.30;38.18;102368.09;5032222;28;20033;-69
2023/09/14 10:15:54;;;;;;;6.13;2.35;;;;;;;27.85;40.05;102371.63;5033793;28;20078;-69
2023/09/14 10:18:28;;;;;;;4.03;2.70;;;;;;;29.14;38.17;102367.31;5033618;28;20032;-69
2023/09/14 10:20:55;;;;;;;4.57;2.72;;;;;;;29.78;36.10;102369.41;5015671;28;20083;-69
2023/09/14 10:23:21;;;;;;;6.63;3.03;;;;;;;29.20;37.68;102363.34;5033416;28;20049;-69
2023/09/14 10:25:49;;;;;;;5.35;2.53;;;;;;;29.90;36.36;102356.97;5015445;28;20041;-69
2023/09/14 10:28:16;;;;;;;5.97;2.60;;;;;;;29.47;36.65;102359.81;5033137;28;20366;-69
2023/09/14 10:30:44;;;;;;;6.10;2.58;;;;;;;28.94;36.85;102345.22;5015128;28;20037;-70
2023/09/14 10:33:11;;;;;;;6.18;2.65;;;;;;;28.46;36.39;102352.75;5015714;28;20083;-69
2023/09/14 10:35:40;;;;;;;5.93;2.50;;;;;;;28.97;35.75;102346.00;5015723;28;20026;-69
2023/09/14 10:38:10;;;;;;;5.68;2.15;;;;;;;28.38;37.01;102352.34;5015250;28;20473;-69
2023/09/14 10:40:37;;;;;;;5.55;2.53;;;;;;;28.36;37.10;102351.59;5015082;28;20025;-69
2023/09/14 10:43:03;;;;;;;6.40;2.45;;;;;;;28.58;37.47;102341.22;5015413;28;20504;-70
2023/09/14 10:45:36;;;;;;;7.85;2.60;;;;;;;28.82;37.13;102337.09;5032828;28;20025;-70
2023/09/14 10:48:05;;;;;;;7.13;2.13;;;;;;;28.09;37.04;102339.72;5032630;28;20029;-70
2023/09/14 10:50:31;;;;;;;7.40;2.72;;;;;;;27.93;37.10;102345.16;5014964;28;20029;-70
2023/09/14 10:52:57;;;;;;;3.55;1.98;;;;;;;27.74;36.79;102342.69;5032672;28;20059;-70
2023/09/14 10:55:26;;;;;;;6.68;2.08;;;;;;;28.60;35.08;102341.09;5032433;28;20475;-70
2023/09/14 10:57:52;;;;;;;3.88;1.90;;;;;;;28.87;35.27;102329.59;5032542;28;20052;-69
2023/09/14 11:00:33;;;;;;;3.75;2.10;;;;;;;28.91;35.39;102337.34;5014792;28;20051;-69
2023/09/14 11:02:58;;;;;;;5.55;1.88;;;;;;;29.32;34.29;102340.16;5014968;28;20044;-70
2023/09/14 11:05:43;;;;;;;4.38;2.22;;;;;;;29.07;34.50;102336.34;5031333;28;20025;-70
2023/09/14 11:08:09;;;;;;;5.05;1.65;;;;;;;28.94;32.91;102333.63;5014656;28;20037;-69
2023/09/14 11:10:37;;;;;;;4.05;1.90;;;;;;;29.27;33.28;102338.63;5032448;28;20116;-69
2023/09/14 11:13:20;;;;;;;2.20;1.70;;;;;;;27.98;35.10;102338.63;5014764;28;20029;-69
2023/09/14 11:15:56;;;;;;;4.20;2.00;;;;;;;27.99;35.04;102335.84;5014614;28;20025;-69
2023/09/14 11:18:43;;;;;;;3.97;2.15;;;;;;;28.69;34.40;102331.66;5032327;28;20060;-69
2023/09/14 11:21:31;;;;;;;4.95;1.95;;;;;;;29.02;34.25;102327.75;5014493;28;20025;-70
2023/09/14 11:23:58;;;;;;;4.13;2.13;;;;;;;29.32;34.12;102313.22;5014480;28;20136;-69